sensor_id;sensor_type;location;lat;lon;timestamp;P1;durP1;ratioP1;P2;durP2;ratioP2
52854;SDS011;38719;51.418;7.286;2023-08-17T00:00:08;13.68;;;4.45;;
52854;SDS011;38719;51.418;7.286;2023-08-17T00:02:37;7.82;;;4.07;;
52854;SDS011;38719;51.418;7.286;2023-08-17T00:05:05;5.63;;;4.20;;
52854;SDS011;38719;51.418;7.286;2023-08-17T00:07:33;6.88;;;4.28;;
52854;SDS011;38719;51.418;7.286;2023-08-17T00:10:01;7.82;;;4.15;;
52854;SDS011;38719;51.418;7.286;2023-08-17T00:12:30;9.35;;;4.35;;
52854;SDS011;38719;51.418;7.286;2023-08-17T00:14:57;7.13;;;4.32;;
52854;SDS011;38719;51.418;7.286;2023-08-17T00:17:25;5.57;;;4.00;;
52854;SDS011;38719;51.418;7.286;2023-08-17T00:19:53;6.03;;;4.47;;
52854;SDS011;38719;51.418;7.286;2023-08-17T00:22:21;7.13;;;4.70;;
52854;SDS011;38719;51.418;7.286;2023-08-17T00:24:48;11.95;;;6.65;;
52854;SDS011;38719;51.418;7.286;2023-08-17T00:27:16;9.07;;;5.10;;
52854;SDS011;38719;51.418;7.286;2023-08-17T00:29:45;7.78;;;5.20;;
52854;SDS011;38719;51.418;7.286;2023-08-17T00:32:13;9.35;;;4.88;;
52854;SDS011;38719;51.418;7.286;2023-08-17T00:34:40;9.93;;;4.75;;
52854;SDS011;38719;51.418;7.286;2023-08-17T00:37:08;8.02;;;5.00;;
52854;SDS011;38719;51.418;7.286;2023-08-17T00:39:35;9.57;;;4.57;;
52854;SDS011;38719;51.418;7.286;2023-08-17T00:42:03;13.02;;;6.82;;
52854;SDS011;38719;51.418;7.286;2023-08-17T00:44:31;8.90;;;5.45;;
52854;SDS011;38719;51.418;7.286;2023-08-17T00:47:00;14.15;;;5.57;;
52854;SDS011;38719;51.418;7.286;2023-08-17T00:49:28;8.00;;;4.85;;
52854;SDS011;38719;51.418;7.286;2023-08-17T00:51:56;9.23;;;5.00;;
52854;SDS011;38719;51.418;7.286;2023-08-17T00:54:24;7.60;;;4.85;;
52854;SDS011;38719;51.418;7.286;2023-08-17T00:56:54;4.40;;;3.90;;
52854;SDS011;38719;51.418;7.286;2023-08-17T00:59:22;7.15;;;4.47;;
52854;SDS011;38719;51.418;7.286;2023-08-17T01:01:50;9.15;;;4.63;;
52854;SDS011;38719;51.418;7.286;2023-08-17T01:04:20;10.65;;;5.07;;
52854;SDS011;38719;51.418;7.286;2023-08-17T01:06:47;10.18;;;4.85;;
52854;SDS011;38719;51.418;7.286;2023-08-17T01:09:15;8.93;;;5.03;;
52854;SDS011;38719;51.418;7.286;2023-08-17T01:11:44;7.25;;;5.13;;
52854;SDS011;38719;51.418;7.286;2023-08-17T01:14:52;7.78;;;4.57;;
52854;SDS011;38719;51.418;7.286;2023-08-17T01:17:28;11.10;;;5.10;;
52854;SDS011;38719;51.418;7.286;2023-08-17T01:20:00;8.38;;;4.45;;
52854;SDS011;38719;51.418;7.286;2023-08-17T01:22:30;9.95;;;4.57;;
52854;SDS011;38719;51.418;7.286;2023-08-17T01:25:01;6.97;;;3.67;;
52854;SDS011;38719;51.418;7.286;2023-08-17T01:27:33;8.30;;;3.85;;
52854;SDS011;38719;51.418;7.286;2023-08-17T01:30:04;5.10;;;3.50;;
52854;SDS011;38719;51.418;7.286;2023-08-17T01:32:34;3.55;;;2.85;;
52854;SDS011;38719;51.418;7.286;2023-08-17T01:35:09;5.28;;;2.88;;
52854;SDS011;38719;51.418;7.286;2023-08-17T01:37:41;6.00;;;2.72;;
52854;SDS011;38719;51.418;7.286;2023-08-17T01:40:11;4.60;;;3.00;;
52854;SDS011;38719;51.418;7.286;2023-08-17T01:42:41;4.72;;;2.75;;
52854;SDS011;38719;51.418;7.286;2023-08-17T01:45:09;3.63;;;3.08;;
52854;SDS011;38719;51.418;7.286;2023-08-17T01:47:38;5.80;;;3.00;;
52854;SDS011;38719;51.418;7.286;2023-08-17T01:50:06;5.57;;;2.88;;
52854;SDS011;38719;51.418;7.286;2023-08-17T01:52:34;3.63;;;2.83;;
52854;SDS011;38719;51.418;7.286;2023-08-17T01:55:01;3.97;;;3.03;;
52854;SDS011;38719;51.418;7.286;2023-08-17T01:57:30;3.30;;;3.00;;
52854;SDS011;38719;51.418;7.286;2023-08-17T01:59:58;6.38;;;3.17;;
52854;SDS011;38719;51.418;7.286;2023-08-17T02:02:26;5.85;;;3.83;;
52854;SDS011;38719;51.418;7.286;2023-08-17T02:04:54;4.82;;;3.38;;
52854;SDS011;38719;51.418;7.286;2023-08-17T02:07:21;6.80;;;4.32;;
52854;SDS011;38719;51.418;7.286;2023-08-17T02:09:49;7.10;;;3.95;;
52854;SDS011;38719;51.418;7.286;2023-08-17T02:12:17;8.60;;;4.78;;
52854;SDS011;38719;51.418;7.286;2023-08-17T02:14:46;12.52;;;5.72;;
52854;SDS011;38719;51.418;7.286;2023-08-17T02:17:13;10.07;;;6.00;;
52854;SDS011;38719;51.418;7.286;2023-08-17T02:19:42;8.63;;;5.63;;
52854;SDS011;38719;51.418;7.286;2023-08-17T02:22:10;8.48;;;5.72;;
52854;SDS011;38719;51.418;7.286;2023-08-17T02:24:37;13.15;;;6.32;;
52854;SDS011;38719;51.418;7.286;2023-08-17T02:27:05;9.07;;;5.60;;
52854;SDS011;38719;51.418;7.286;2023-08-17T02:29:32;9.90;;;5.55;;
52854;SDS011;38719;51.418;7.286;2023-08-17T02:32:01;8.80;;;5.38;;
52854;SDS011;38719;51.418;7.286;2023-08-17T02:34:29;8.25;;;5.57;;
52854;SDS011;38719;51.418;7.286;2023-08-17T02:36:57;9.45;;;6.13;;
52854;SDS011;38719;51.418;7.286;2023-08-17T02:39:25;8.77;;;6.22;;
52854;SDS011;38719;51.418;7.286;2023-08-17T02:41:53;13.50;;;6.28;;
52854;SDS011;38719;51.418;7.286;2023-08-17T02:44:21;9.20;;;6.10;;
52854;SDS011;38719;51.418;7.286;2023-08-17T02:46:48;8.25;;;6.05;;
52854;SDS011;38719;51.418;7.286;2023-08-17T02:49:17;11.23;;;5.97;;
52854;SDS011;38719;51.418;7.286;2023-08-17T02:51:46;14.02;;;6.13;;
52854;SDS011;38719;51.418;7.286;2023-08-17T02:54:14;13.48;;;5.75;;
52854;SDS011;38719;51.418;7.286;2023-08-17T02:56:41;7.43;;;6.00;;
52854;SDS011;38719;51.418;7.286;2023-08-17T02:59:09;10.65;;;6.45;;
52854;SDS011;38719;51.418;7.286;2023-08-17T03:01:36;8.43;;;6.55;;
52854;SDS011;38719;51.418;7.286;2023-08-17T03:04:04;9.45;;;6.85;;
52854;SDS011;38719;51.418;7.286;2023-08-17T03:06:33;10.38;;;7.25;;
52854;SDS011;38719;51.418;7.286;2023-08-17T03:09:01;11.23;;;7.13;;
52854;SDS011;38719;51.418;7.286;2023-08-17T03:11:28;9.68;;;6.70;;
52854;SDS011;38719;51.418;7.286;2023-08-17T03:13:56;12.18;;;6.70;;
52854;SDS011;38719;51.418;7.286;2023-08-17T03:16:26;12.75;;;7.15;;
52854;SDS011;38719;51.418;7.286;2023-08-17T03:18:56;9.95;;;6.53;;
52854;SDS011;38719;51.418;7.286;2023-08-17T03:21:24;11.80;;;6.35;;
52854;SDS011;38719;51.418;7.286;2023-08-17T03:23:53;8.73;;;5.93;;
52854;SDS011;38719;51.418;7.286;2023-08-17T03:26:21;8.40;;;5.55;;
52854;SDS011;38719;51.418;7.286;2023-08-17T03:28:49;10.48;;;5.95;;
52854;SDS011;38719;51.418;7.286;2023-08-17T03:31:16;11.02;;;5.63;;
52854;SDS011;38719;51.418;7.286;2023-08-17T03:33:44;12.30;;;6.63;;
52854;SDS011;38719;51.418;7.286;2023-08-17T03:36:11;11.13;;;6.50;;
52854;SDS011;38719;51.418;7.286;2023-08-17T03:38:39;11.07;;;6.53;;
52854;SDS011;38719;51.418;7.286;2023-08-17T03:41:09;11.60;;;6.18;;
52854;SDS011;38719;51.418;7.286;2023-08-17T03:43:37;7.95;;;5.97;;
52854;SDS011;38719;51.418;7.286;2023-08-17T03:46:04;9.35;;;5.43;;
52854;SDS011;38719;51.418;7.286;2023-08-17T03:48:32;9.80;;;5.30;;
52854;SDS011;38719;51.418;7.286;2023-08-17T03:51:00;10.35;;;5.53;;
52854;SDS011;38719;51.418;7.286;2023-08-17T03:53:28;10.73;;;5.28;;
52854;SDS011;38719;51.418;7.286;2023-08-17T03:55:56;10.77;;;5.53;;
52854;SDS011;38719;51.418;7.286;2023-08-17T03:58:25;9.90;;;6.18;;
52854;SDS011;38719;51.418;7.286;2023-08-17T04:00:53;11.73;;;5.90;;
52854;SDS011;38719;51.418;7.286;2023-08-17T04:03:20;9.18;;;5.70;;
52854;SDS011;38719;51.418;7.286;2023-08-17T04:05:48;10.57;;;6.63;;
52854;SDS011;38719;51.418;7.286;2023-08-17T04:08:16;10.75;;;6.18;;
52854;SDS011;38719;51.418;7.286;2023-08-17T04:10:43;10.68;;;6.68;;
52854;SDS011;38719;51.418;7.286;2023-08-17T04:13:11;11.73;;;6.40;;
52854;SDS011;38719;51.418;7.286;2023-08-17T04:15:40;8.25;;;6.65;;
52854;SDS011;38719;51.418;7.286;2023-08-17T04:18:07;10.30;;;6.80;;
52854;SDS011;38719;51.418;7.286;2023-08-17T04:20:35;12.25;;;7.07;;
52854;SDS011;38719;51.418;7.286;2023-08-17T04:23:03;11.10;;;6.70;;
52854;SDS011;38719;51.418;7.286;2023-08-17T04:25:31;13.65;;;6.55;;
52854;SDS011;38719;51.418;7.286;2023-08-17T04:27:58;14.88;;;6.35;;
52854;SDS011;38719;51.418;7.286;2023-08-17T04:30:26;11.15;;;7.30;;
52854;SDS011;38719;51.418;7.286;2023-08-17T04:32:55;10.38;;;7.13;;
52854;SDS011;38719;51.418;7.286;2023-08-17T04:35:23;10.88;;;7.85;;
52854;SDS011;38719;51.418;7.286;2023-08-17T04:37:50;12.27;;;7.75;;
52854;SDS011;38719;51.418;7.286;2023-08-17T04:40:18;7.75;;;6.95;;
52854;SDS011;38719;51.418;7.286;2023-08-17T04:42:45;15.65;;;8.02;;
52854;SDS011;38719;51.418;7.286;2023-08-17T04:45:13;14.10;;;8.02;;
52854;SDS011;38719;51.418;7.286;2023-08-17T04:47:41;17.02;;;7.85;;
52854;SDS011;38719;51.418;7.286;2023-08-17T04:50:10;13.80;;;8.30;;
52854;SDS011;38719;51.418;7.286;2023-08-17T04:52:42;10.73;;;7.65;;
52854;SDS011;38719;51.418;7.286;2023-08-17T04:55:10;14.40;;;7.90;;
52854;SDS011;38719;51.418;7.286;2023-08-17T04:57:38;12.90;;;8.15;;
52854;SDS011;38719;51.418;7.286;2023-08-17T05:00:06;10.20;;;7.57;;
52854;SDS011;38719;51.418;7.286;2023-08-17T05:02:35;13.82;;;7.63;;
52854;SDS011;38719;51.418;7.286;2023-08-17T05:05:04;12.68;;;8.13;;
52854;SDS011;38719;51.418;7.286;2023-08-17T05:07:34;11.80;;;7.82;;
52854;SDS011;38719;51.418;7.286;2023-08-17T05:10:01;13.93;;;7.97;;
52854;SDS011;38719;51.418;7.286;2023-08-17T05:12:30;16.02;;;8.65;;
52854;SDS011;38719;51.418;7.286;2023-08-17T05:14:57;13.00;;;7.85;;
52854;SDS011;38719;51.418;7.286;2023-08-17T05:17:25;13.15;;;8.38;;
52854;SDS011;38719;51.418;7.286;2023-08-17T05:19:53;13.65;;;8.23;;
52854;SDS011;38719;51.418;7.286;2023-08-17T05:22:22;12.60;;;7.80;;
52854;SDS011;38719;51.418;7.286;2023-08-17T05:24:51;14.52;;;8.05;;
52854;SDS011;38719;51.418;7.286;2023-08-17T05:27:19;12.48;;;8.82;;
52854;SDS011;38719;51.418;7.286;2023-08-17T05:29:46;14.40;;;8.65;;
52854;SDS011;38719;51.418;7.286;2023-08-17T05:32:14;15.65;;;9.75;;
52854;SDS011;38719;51.418;7.286;2023-08-17T05:34:41;12.77;;;9.30;;
52854;SDS011;38719;51.418;7.286;2023-08-17T05:37:09;14.77;;;9.27;;
52854;SDS011;38719;51.418;7.286;2023-08-17T05:39:37;18.35;;;9.18;;
52854;SDS011;38719;51.418;7.286;2023-08-17T05:42:07;15.80;;;9.00;;
52854;SDS011;38719;51.418;7.286;2023-08-17T05:44:36;13.93;;;8.45;;
52854;SDS011;38719;51.418;7.286;2023-08-17T05:47:03;12.88;;;8.85;;
52854;SDS011;38719;51.418;7.286;2023-08-17T05:49:31;12.38;;;8.90;;
52854;SDS011;38719;51.418;7.286;2023-08-17T05:51:58;14.10;;;9.43;;
52854;SDS011;38719;51.418;7.286;2023-08-17T05:54:26;12.50;;;9.10;;
52854;SDS011;38719;51.418;7.286;2023-08-17T05:56:53;18.65;;;10.23;;
52854;SDS011;38719;51.418;7.286;2023-08-17T05:59:23;19.20;;;10.90;;
52854;SDS011;38719;51.418;7.286;2023-08-17T06:01:50;18.13;;;10.63;;
52854;SDS011;38719;51.418;7.286;2023-08-17T06:04:18;17.25;;;10.43;;
52854;SDS011;38719;51.418;7.286;2023-08-17T06:06:46;12.23;;;10.30;;
52854;SDS011;38719;51.418;7.286;2023-08-17T06:09:14;20.02;;;11.48;;
52854;SDS011;38719;51.418;7.286;2023-08-17T06:11:42;15.02;;;10.15;;
52854;SDS011;38719;51.418;7.286;2023-08-17T06:14:09;13.55;;;10.38;;
52854;SDS011;38719;51.418;7.286;2023-08-17T06:16:38;13.05;;;9.90;;
52854;SDS011;38719;51.418;7.286;2023-08-17T06:19:06;14.65;;;9.65;;
52854;SDS011;38719;51.418;7.286;2023-08-17T06:21:34;16.60;;;10.82;;
52854;SDS011;38719;51.418;7.286;2023-08-17T06:24:01;16.90;;;12.05;;
52854;SDS011;38719;51.418;7.286;2023-08-17T06:26:29;17.40;;;11.38;;
52854;SDS011;38719;51.418;7.286;2023-08-17T06:28:57;19.20;;;11.80;;
52854;SDS011;38719;51.418;7.286;2023-08-17T06:31:25;20.25;;;11.82;;
52854;SDS011;38719;51.418;7.286;2023-08-17T06:33:55;22.98;;;11.32;;
52854;SDS011;38719;51.418;7.286;2023-08-17T06:36:23;18.67;;;12.10;;
52854;SDS011;38719;51.418;7.286;2023-08-17T06:38:50;17.02;;;11.32;;
52854;SDS011;38719;51.418;7.286;2023-08-17T06:41:18;23.00;;;12.10;;
52854;SDS011;38719;51.418;7.286;2023-08-17T06:43:46;19.13;;;11.48;;
52854;SDS011;38719;51.418;7.286;2023-08-17T06:46:13;21.00;;;11.77;;
52854;SDS011;38719;51.418;7.286;2023-08-17T06:48:42;23.02;;;10.30;;
52854;SDS011;38719;51.418;7.286;2023-08-17T06:51:11;16.52;;;11.40;;
52854;SDS011;38719;51.418;7.286;2023-08-17T06:53:38;16.40;;;10.65;;
52854;SDS011;38719;51.418;7.286;2023-08-17T06:56:06;16.63;;;10.60;;
52854;SDS011;38719;51.418;7.286;2023-08-17T06:58:34;17.15;;;11.18;;
52854;SDS011;38719;51.418;7.286;2023-08-17T07:01:01;18.35;;;11.00;;
52854;SDS011;38719;51.418;7.286;2023-08-17T07:03:29;17.00;;;11.02;;
52854;SDS011;38719;51.418;7.286;2023-08-17T07:05:56;16.55;;;11.30;;
52854;SDS011;38719;51.418;7.286;2023-08-17T07:08:26;20.27;;;11.10;;
52854;SDS011;38719;51.418;7.286;2023-08-17T07:10:53;14.98;;;10.45;;
52854;SDS011;38719;51.418;7.286;2023-08-17T07:13:22;14.85;;;11.00;;
52854;SDS011;38719;51.418;7.286;2023-08-17T07:15:49;18.42;;;10.77;;
52854;SDS011;38719;51.418;7.286;2023-08-17T07:18:17;16.75;;;11.60;;
52854;SDS011;38719;51.418;7.286;2023-08-17T07:20:45;18.70;;;11.43;;
52854;SDS011;38719;51.418;7.286;2023-08-17T07:23:12;17.27;;;11.43;;
52854;SDS011;38719;51.418;7.286;2023-08-17T07:25:41;14.98;;;10.45;;
52854;SDS011;38719;51.418;7.286;2023-08-17T07:28:10;17.60;;;10.40;;
52854;SDS011;38719;51.418;7.286;2023-08-17T07:30:38;18.80;;;10.07;;
52854;SDS011;38719;51.418;7.286;2023-08-17T07:33:05;16.30;;;11.02;;
52854;SDS011;38719;51.418;7.286;2023-08-17T07:35:33;19.52;;;10.27;;
52854;SDS011;38719;51.418;7.286;2023-08-17T07:38:01;19.85;;;10.35;;
52854;SDS011;38719;51.418;7.286;2023-08-17T07:40:34;17.30;;;10.38;;
52854;SDS011;38719;51.418;7.286;2023-08-17T07:43:03;18.08;;;10.88;;
52854;SDS011;38719;51.418;7.286;2023-08-17T07:45:31;18.10;;;10.82;;
52854;SDS011;38719;51.418;7.286;2023-08-17T07:47:59;24.08;;;10.65;;
52854;SDS011;38719;51.418;7.286;2023-08-17T07:50:27;20.70;;;11.20;;
52854;SDS011;38719;51.418;7.286;2023-08-17T07:52:54;19.88;;;10.57;;
52854;SDS011;38719;51.418;7.286;2023-08-17T07:55:22;18.65;;;10.20;;
52854;SDS011;38719;51.418;7.286;2023-08-17T07:57:50;14.40;;;10.02;;
52854;SDS011;38719;51.418;7.286;2023-08-17T08:00:19;19.80;;;10.88;;
52854;SDS011;38719;51.418;7.286;2023-08-17T08:02:47;18.15;;;9.55;;
52854;SDS011;38719;51.418;7.286;2023-08-17T08:05:15;16.63;;;9.85;;
52854;SDS011;38719;51.418;7.286;2023-08-17T08:07:42;16.80;;;10.18;;
52854;SDS011;38719;51.418;7.286;2023-08-17T08:10:10;16.58;;;10.10;;
52854;SDS011;38719;51.418;7.286;2023-08-17T08:12:38;18.27;;;10.45;;
52854;SDS011;38719;51.418;7.286;2023-08-17T08:15:06;19.75;;;10.05;;
52854;SDS011;38719;51.418;7.286;2023-08-17T08:17:36;14.23;;;9.52;;
52854;SDS011;38719;51.418;7.286;2023-08-17T08:20:04;17.60;;;10.02;;
52854;SDS011;38719;51.418;7.286;2023-08-17T08:22:32;17.33;;;9.90;;
52854;SDS011;38719;51.418;7.286;2023-08-17T08:25:00;16.55;;;9.85;;
52854;SDS011;38719;51.418;7.286;2023-08-17T08:27:28;16.73;;;10.05;;
52854;SDS011;38719;51.418;7.286;2023-08-17T08:29:55;19.15;;;10.88;;
52854;SDS011;38719;51.418;7.286;2023-08-17T08:32:23;18.80;;;10.52;;
52854;SDS011;38719;51.418;7.286;2023-08-17T08:34:55;17.15;;;10.57;;
52854;SDS011;38719;51.418;7.286;2023-08-17T08:37:22;22.88;;;10.30;;
52854;SDS011;38719;51.418;7.286;2023-08-17T08:39:51;14.30;;;9.93;;
52854;SDS011;38719;51.418;7.286;2023-08-17T08:42:21;14.95;;;9.63;;
52854;SDS011;38719;51.418;7.286;2023-08-17T08:44:49;17.75;;;10.68;;
52854;SDS011;38719;51.418;7.286;2023-08-17T08:47:18;15.48;;;9.50;;
52854;SDS011;38719;51.418;7.286;2023-08-17T08:49:49;16.17;;;9.68;;
52854;SDS011;38719;51.418;7.286;2023-08-17T08:52:33;15.60;;;10.98;;
52854;SDS011;38719;51.418;7.286;2023-08-17T08:55:03;18.52;;;10.00;;
52854;SDS011;38719;51.418;7.286;2023-08-17T08:57:38;16.95;;;10.40;;
52854;SDS011;38719;51.418;7.286;2023-08-17T09:00:07;15.52;;;10.52;;
52854;SDS011;38719;51.418;7.286;2023-08-17T09:02:35;16.80;;;10.63;;
52854;SDS011;38719;51.418;7.286;2023-08-17T09:05:04;16.33;;;10.32;;
52854;SDS011;38719;51.418;7.286;2023-08-17T09:07:35;18.42;;;10.48;;
52854;SDS011;38719;51.418;7.286;2023-08-17T09:10:05;14.15;;;9.93;;
52854;SDS011;38719;51.418;7.286;2023-08-17T09:12:33;17.70;;;10.70;;
52854;SDS011;38719;51.418;7.286;2023-08-17T09:15:06;14.23;;;9.60;;
52854;SDS011;38719;51.418;7.286;2023-08-17T09:17:35;16.23;;;10.20;;
52854;SDS011;38719;51.418;7.286;2023-08-17T09:20:03;16.13;;;10.02;;
52854;SDS011;38719;51.418;7.286;2023-08-17T09:22:39;20.30;;;11.00;;
52854;SDS011;38719;51.418;7.286;2023-08-17T09:25:08;17.92;;;10.82;;
52854;SDS011;38719;51.418;7.286;2023-08-17T09:27:37;17.05;;;10.50;;
52854;SDS011;38719;51.418;7.286;2023-08-17T09:30:06;18.98;;;10.60;;
52854;SDS011;38719;51.418;7.286;2023-08-17T09:32:36;20.15;;;10.40;;
52854;SDS011;38719;51.418;7.286;2023-08-17T09:35:04;16.35;;;10.70;;
52854;SDS011;38719;51.418;7.286;2023-08-17T09:37:33;23.48;;;11.23;;
52854;SDS011;38719;51.418;7.286;2023-08-17T09:40:02;16.45;;;11.30;;
52854;SDS011;38719;51.418;7.286;2023-08-17T09:42:34;17.13;;;10.52;;
52854;SDS011;38719;51.418;7.286;2023-08-17T09:45:02;18.95;;;10.65;;
52854;SDS011;38719;51.418;7.286;2023-08-17T09:47:30;21.58;;;11.60;;
52854;SDS011;38719;51.418;7.286;2023-08-17T09:49:57;18.52;;;10.73;;
52854;SDS011;38719;51.418;7.286;2023-08-17T09:52:25;24.33;;;10.48;;
52854;SDS011;38719;51.418;7.286;2023-08-17T09:54:53;19.85;;;10.82;;
52854;SDS011;38719;51.418;7.286;2023-08-17T09:57:23;24.92;;;11.02;;
52854;SDS011;38719;51.418;7.286;2023-08-17T09:59:51;19.30;;;10.85;;
52854;SDS011;38719;51.418;7.286;2023-08-17T10:02:22;16.58;;;10.00;;
52854;SDS011;38719;51.418;7.286;2023-08-17T10:04:53;17.73;;;10.30;;
52854;SDS011;38719;51.418;7.286;2023-08-17T10:07:21;17.77;;;11.55;;
52854;SDS011;38719;51.418;7.286;2023-08-17T10:09:53;17.02;;;10.65;;
52854;SDS011;38719;51.418;7.286;2023-08-17T10:12:26;19.45;;;11.15;;
52854;SDS011;38719;51.418;7.286;2023-08-17T10:14:57;16.65;;;10.50;;
52854;SDS011;38719;51.418;7.286;2023-08-17T10:17:30;16.08;;;10.23;;
52854;SDS011;38719;51.418;7.286;2023-08-17T10:20:02;21.05;;;11.88;;
52854;SDS011;38719;51.418;7.286;2023-08-17T10:22:33;17.10;;;10.40;;
52854;SDS011;38719;51.418;7.286;2023-08-17T10:25:05;19.45;;;11.13;;
52854;SDS011;38719;51.418;7.286;2023-08-17T10:27:39;18.20;;;10.77;;
52854;SDS011;38719;51.418;7.286;2023-08-17T10:30:07;17.15;;;10.48;;
52854;SDS011;38719;51.418;7.286;2023-08-17T10:32:38;15.15;;;9.98;;
52854;SDS011;38719;51.418;7.286;2023-08-17T10:35:11;15.38;;;9.40;;
52854;SDS011;38719;51.418;7.286;2023-08-17T10:37:40;16.15;;;9.88;;
52854;SDS011;38719;51.418;7.286;2023-08-17T10:40:09;17.95;;;9.65;;
52854;SDS011;38719;51.418;7.286;2023-08-17T10:42:42;17.08;;;9.18;;
52854;SDS011;38719;51.418;7.286;2023-08-17T10:45:25;16.35;;;9.55;;
52854;SDS011;38719;51.418;7.286;2023-08-17T10:48:24;13.80;;;8.90;;
52854;SDS011;38719;51.418;7.286;2023-08-17T10:51:00;13.68;;;9.07;;
52854;SDS011;38719;51.418;7.286;2023-08-17T10:53:34;15.57;;;8.57;;
52854;SDS011;38719;51.418;7.286;2023-08-17T10:56:06;13.15;;;8.55;;
52854;SDS011;38719;51.418;7.286;2023-08-17T10:58:36;11.93;;;7.72;;
52854;SDS011;38719;51.418;7.286;2023-08-17T11:01:04;9.13;;;6.82;;
52854;SDS011;38719;51.418;7.286;2023-08-17T11:03:32;10.77;;;7.15;;
52854;SDS011;38719;51.418;7.286;2023-08-17T11:06:14;10.70;;;7.03;;
52854;SDS011;38719;51.418;7.286;2023-08-17T11:08:51;8.93;;;6.32;;
52854;SDS011;38719;51.418;7.286;2023-08-17T11:11:20;8.00;;;5.65;;
52854;SDS011;38719;51.418;7.286;2023-08-17T11:13:52;10.10;;;6.45;;
52854;SDS011;38719;51.418;7.286;2023-08-17T11:16:23;10.57;;;6.60;;
52854;SDS011;38719;51.418;7.286;2023-08-17T11:18:51;10.93;;;6.80;;
52854;SDS011;38719;51.418;7.286;2023-08-17T11:21:19;10.68;;;6.47;;
52854;SDS011;38719;51.418;7.286;2023-08-17T11:23:47;10.88;;;6.63;;
52854;SDS011;38719;51.418;7.286;2023-08-17T11:26:15;12.02;;;7.22;;
52854;SDS011;38719;51.418;7.286;2023-08-17T11:28:43;10.98;;;5.95;;
52854;SDS011;38719;51.418;7.286;2023-08-17T11:31:13;10.25;;;6.15;;
52854;SDS011;38719;51.418;7.286;2023-08-17T11:33:42;8.57;;;6.35;;
52854;SDS011;38719;51.418;7.286;2023-08-17T11:36:11;10.07;;;5.63;;
52854;SDS011;38719;51.418;7.286;2023-08-17T11:38:39;9.23;;;5.50;;
52854;SDS011;38719;51.418;7.286;2023-08-17T11:41:08;9.32;;;5.57;;
52854;SDS011;38719;51.418;7.286;2023-08-17T11:43:44;6.85;;;5.75;;
52854;SDS011;38719;51.418;7.286;2023-08-17T11:46:14;5.72;;;4.97;;
52854;SDS011;38719;51.418;7.286;2023-08-17T11:48:42;9.30;;;4.97;;
52854;SDS011;38719;51.418;7.286;2023-08-17T11:51:10;10.13;;;6.05;;
52854;SDS011;38719;51.418;7.286;2023-08-17T11:53:39;11.80;;;5.65;;
52854;SDS011;38719;51.418;7.286;2023-08-17T11:56:07;9.65;;;5.53;;
52854;SDS011;38719;51.418;7.286;2023-08-17T11:58:39;6.50;;;4.97;;
52854;SDS011;38719;51.418;7.286;2023-08-17T12:01:09;12.18;;;5.88;;
52854;SDS011;38719;51.418;7.286;2023-08-17T12:03:40;7.05;;;5.75;;
52854;SDS011;38719;51.418;7.286;2023-08-17T12:06:09;10.00;;;5.80;;
52854;SDS011;38719;51.418;7.286;2023-08-17T12:08:41;6.28;;;5.43;;
52854;SDS011;38719;51.418;7.286;2023-08-17T12:11:12;9.02;;;5.47;;
52854;SDS011;38719;51.418;7.286;2023-08-17T12:13:40;7.82;;;5.95;;
52854;SDS011;38719;51.418;7.286;2023-08-17T12:16:13;8.13;;;5.90;;
52854;SDS011;38719;51.418;7.286;2023-08-17T12:18:44;8.02;;;5.53;;
52854;SDS011;38719;51.418;7.286;2023-08-17T12:21:12;8.50;;;6.18;;
52854;SDS011;38719;51.418;7.286;2023-08-17T12:23:40;10.98;;;6.38;;
52854;SDS011;38719;51.418;7.286;2023-08-17T12:26:09;9.00;;;6.28;;
52854;SDS011;38719;51.418;7.286;2023-08-17T12:28:39;10.10;;;6.65;;
52854;SDS011;38719;51.418;7.286;2023-08-17T12:31:07;12.25;;;7.80;;
52854;SDS011;38719;51.418;7.286;2023-08-17T12:33:35;10.02;;;6.82;;
52854;SDS011;38719;51.418;7.286;2023-08-17T12:36:04;13.27;;;7.40;;
52854;SDS011;38719;51.418;7.286;2023-08-17T12:38:33;9.52;;;7.22;;
52854;SDS011;38719;51.418;7.286;2023-08-17T12:41:01;10.80;;;7.30;;
52854;SDS011;38719;51.418;7.286;2023-08-17T12:43:32;12.07;;;8.18;;
52854;SDS011;38719;51.418;7.286;2023-08-17T12:46:00;13.18;;;9.48;;
52854;SDS011;38719;51.418;7.286;2023-08-17T12:48:27;14.55;;;8.82;;
52854;SDS011;38719;51.418;7.286;2023-08-17T12:50:55;11.32;;;8.35;;
52854;SDS011;38719;51.418;7.286;2023-08-17T12:53:24;17.42;;;8.77;;
52854;SDS011;38719;51.418;7.286;2023-08-17T12:55:51;17.50;;;8.82;;
52854;SDS011;38719;51.418;7.286;2023-08-17T12:58:21;14.40;;;9.15;;
52854;SDS011;38719;51.418;7.286;2023-08-17T13:00:49;11.27;;;8.32;;
52854;SDS011;38719;51.418;7.286;2023-08-17T13:03:17;12.40;;;8.75;;
52854;SDS011;38719;51.418;7.286;2023-08-17T13:05:45;13.90;;;8.88;;
52854;SDS011;38719;51.418;7.286;2023-08-17T13:08:12;14.40;;;9.70;;
52854;SDS011;38719;51.418;7.286;2023-08-17T13:10:41;15.70;;;9.07;;
52854;SDS011;38719;51.418;7.286;2023-08-17T13:13:09;14.93;;;9.52;;
52854;SDS011;38719;51.418;7.286;2023-08-17T13:15:37;18.23;;;10.63;;
52854;SDS011;38719;51.418;7.286;2023-08-17T13:18:04;18.88;;;10.50;;
52854;SDS011;38719;51.418;7.286;2023-08-17T13:20:33;19.08;;;10.55;;
52854;SDS011;38719;51.418;7.286;2023-08-17T13:23:00;16.70;;;10.77;;
52854;SDS011;38719;51.418;7.286;2023-08-17T13:25:28;14.88;;;9.88;;
52854;SDS011;38719;51.418;7.286;2023-08-17T13:27:57;22.40;;;11.10;;
52854;SDS011;38719;51.418;7.286;2023-08-17T13:30:24;16.38;;;10.30;;
52854;SDS011;38719;51.418;7.286;2023-08-17T13:32:52;19.92;;;9.57;;
52854;SDS011;38719;51.418;7.286;2023-08-17T13:35:20;16.95;;;10.68;;
52854;SDS011;38719;51.418;7.286;2023-08-17T13:37:50;15.15;;;9.65;;
52854;SDS011;38719;51.418;7.286;2023-08-17T13:40:19;16.05;;;9.98;;
52854;SDS011;38719;51.418;7.286;2023-08-17T13:42:47;17.33;;;9.25;;
52854;SDS011;38719;51.418;7.286;2023-08-17T13:45:16;19.45;;;8.93;;
52854;SDS011;38719;51.418;7.286;2023-08-17T13:47:44;12.57;;;9.13;;
52854;SDS011;38719;51.418;7.286;2023-08-17T13:50:29;11.77;;;8.18;;
52854;SDS011;38719;51.418;7.286;2023-08-17T13:52:57;16.40;;;8.50;;
52854;SDS011;38719;51.418;7.286;2023-08-17T13:55:26;14.55;;;8.85;;
52854;SDS011;38719;51.418;7.286;2023-08-17T13:57:54;13.02;;;8.50;;
52854;SDS011;38719;51.418;7.286;2023-08-17T14:00:23;14.48;;;8.52;;
52854;SDS011;38719;51.418;7.286;2023-08-17T14:02:52;15.05;;;8.60;;
52854;SDS011;38719;51.418;7.286;2023-08-17T14:05:20;13.63;;;8.73;;
52854;SDS011;38719;51.418;7.286;2023-08-17T14:07:48;12.98;;;8.50;;
52854;SDS011;38719;51.418;7.286;2023-08-17T14:10:15;10.95;;;8.50;;
52854;SDS011;38719;51.418;7.286;2023-08-17T14:13:02;17.05;;;7.95;;
52854;SDS011;38719;51.418;7.286;2023-08-17T14:15:32;17.58;;;8.95;;
52854;SDS011;38719;51.418;7.286;2023-08-17T14:17:59;13.77;;;8.23;;
52854;SDS011;38719;51.418;7.286;2023-08-17T14:20:27;14.40;;;8.32;;
52854;SDS011;38719;51.418;7.286;2023-08-17T14:22:55;14.05;;;8.13;;
52854;SDS011;38719;51.418;7.286;2023-08-17T14:25:22;11.18;;;8.35;;
52854;SDS011;38719;51.418;7.286;2023-08-17T14:27:50;12.00;;;8.25;;
52854;SDS011;38719;51.418;7.286;2023-08-17T14:30:17;14.93;;;9.10;;
52854;SDS011;38719;51.418;7.286;2023-08-17T14:32:46;13.55;;;8.68;;
52854;SDS011;38719;51.418;7.286;2023-08-17T14:35:14;13.27;;;8.77;;
52854;SDS011;38719;51.418;7.286;2023-08-17T14:37:41;10.93;;;8.07;;
52854;SDS011;38719;51.418;7.286;2023-08-17T14:40:09;17.33;;;9.30;;
52854;SDS011;38719;51.418;7.286;2023-08-17T14:42:37;18.50;;;9.63;;